Time;durP1;ratioP1;P1;durP2;ratioP2;P2;SDS_P1;SDS_P2;PMS_P1;PMS_P2;Temp;Humidity;BMP_temperature;BMP_pressure;BME280_temperature;BME280_humidity;BME280_pressure;Samples;Min_cycle;Max_cycle;Signal;HPM_P1;HPM_P2
2022/09/18 00:01:16;;;;;;;3.45;1.20;;;12.70;78.80;;;;;;6212286;23;20622;-66
2022/09/18 00:03:42;;;;;;;5.35;1.30;;;12.70;78.80;;;;;;6212424;23;20374;-66
2022/09/18 00:06:17;;;;;;;4.70;1.30;;;12.80;78.90;;;;;;6211685;23;20055;-66
2022/09/18 00:08:43;;;;;;;2.35;1.10;;;12.80;79.00;;;;;;6212514;23;20032;-66
2022/09/18 00:11:12;;;;;;;4.95;1.60;;;12.80;78.90;;;;;;6212187;23;20001;-66
2022/09/18 00:13:39;;;;;;;3.95;1.27;;;12.80;78.90;;;;;;6212020;23;20000;-66
2022/09/18 00:16:07;;;;;;;3.65;1.35;;;12.80;78.90;;;;;;6211950;23;19997;-65
2022/09/18 00:18:32;;;;;;;3.00;1.05;;;12.80;79.00;;;;;;6211888;23;20083;-65
2022/09/18 00:21:16;;;;;;;4.38;1.35;;;12.80;79.00;;;;;;6211988;23;20058;-65
2022/09/18 00:23:42;;;;;;;3.85;1.48;;;12.80;79.20;;;;;;6211975;23;20008;-65
2022/09/18 00:26:10;;;;;;;6.28;1.30;;;12.80;79.20;;;;;;6211854;23;20441;-65
2022/09/18 00:28:36;;;;;;;3.88;1.30;;;12.80;79.30;;;;;;6211675;23;20349;-65
2022/09/18 00:31:07;;;;;;;4.55;1.33;;;12.80;79.40;;;;;;6211607;23;20123;-64
2022/09/18 00:33:33;;;;;;;5.97;1.58;;;12.80;79.40;;;;;;6211934;23;20001;-64
2022/09/18 00:36:01;;;;;;;5.22;1.42;;;12.80;79.40;;;;;;6209929;23;19996;-64
2022/09/18 00:38:28;;;;;;;3.85;1.60;;;12.80;79.40;;;;;;6211671;23;20083;-64
2022/09/18 00:40:54;;;;;;;3.85;1.30;;;12.80;79.60;;;;;;6211915;23;20001;-65
2022/09/18 00:43:22;;;;;;;3.20;1.20;;;12.90;79.50;;;;;;6211453;23;20054;-64
2022/09/18 00:46:02;;;;;;;3.95;1.00;;;12.90;79.50;;;;;;6211842;23;20011;-64
2022/09/18 00:48:39;;;;;;;5.03;1.40;;;12.90;79.40;;;;;;6209802;23;20000;-64
2022/09/18 00:51:05;;;;;;;2.95;1.15;;;12.90;79.60;;;;;;6211742;23;19997;-64
2022/09/18 00:53:32;;;;;;;5.00;1.23;;;12.90;79.40;;;;;;6211619;23;19996;-66
2022/09/18 00:55:58;;;;;;;2.55;1.00;;;12.90;79.60;;;;;;6211847;23;20483;-66
2022/09/18 00:58:24;;;;;;;5.03;1.33;;;13.00;79.50;;;;;;6211474;23;20001;-65
2022/09/18 01:00:49;;;;;;;6.72;1.80;;;13.00;79.60;;;;;;6211500;23;20079;-66
2022/09/18 01:03:15;;;;;;;4.55;1.30;;;13.00;79.80;;;;;;6211833;23;20007;-67
2022/09/18 01:05:49;;;;;;;3.80;1.65;;;12.90;79.80;;;;;;6211555;23;20005;-67
2022/09/18 01:08:47;;;;;;;4.13;1.30;;;13.00;80.00;;;;;;6211541;23;20088;-66
2022/09/18 01:11:25;;;;;;;4.78;1.30;;;13.00;80.10;;;;;;6167343;23;20307;-66
2022/09/18 01:14:15;;;;;;;4.35;1.30;;;13.00;80.10;;;;;;6211556;23;19997;-66
2022/09/18 01:16:47;;;;;;;2.92;1.15;;;13.00;80.10;;;;;;6211036;23;20000;-67
2022/09/18 01:19:51;;;;;;;2.45;1.00;;;13.00;80.10;;;;;;6209758;23;20147;-67
2022/09/18 01:22:54;;;;;;;6.47;1.52;;;13.00;80.20;;;;;;6211334;23;20008;-67
2022/09/18 01:25:26;;;;;;;3.75;1.38;;;13.00;80.50;;;;;;6211469;23;20007;-66
2022/09/18 01:28:29;;;;;;;4.57;1.42;;;13.00;80.30;;;;;;6212384;23;20039;-66
2022/09/18 01:31:05;;;;;;;5.38;1.42;;;13.00;80.30;;;;;;6213517;23;20005;-66
2022/09/18 01:33:51;;;;;;;3.85;1.30;;;13.00;80.30;;;;;;6213537;23;19996;-65
2022/09/18 01:36:20;;;;;;;3.22;1.25;;;13.00;80.40;;;;;;6213472;23;20000;-67
2022/09/18 01:39:12;;;;;;;3.88;1.27;;;13.00;80.40;;;;;;6213240;23;20004;-66
2022/09/18 01:41:40;;;;;;;3.28;1.30;;;13.00;80.50;;;;;;6200887;23;20067;-67
2022/09/18 01:44:14;;;;;;;4.28;1.40;;;12.90;80.50;;;;;;6213430;23;20005;-65
2022/09/18 01:46:43;;;;;;;3.47;1.10;;;12.90;80.60;;;;;;6212888;23;20361;-67
2022/09/18 01:49:12;;;;;;;5.18;1.50;;;13.00;80.60;;;;;;6213090;23;20583;-66
2022/09/18 01:51:48;;;;;;;5.45;1.98;;;13.00;80.60;;;;;;6213313;23;20368;-66
2022/09/18 01:54:18;;;;;;;2.88;1.17;;;13.00;80.50;;;;;;6213060;23;20426;-66
2022/09/18 01:57:26;;;;;;;4.40;1.30;;;13.00;80.50;;;;;;6213435;23;20028;-66
2022/09/18 02:00:09;;;;;;;5.20;1.60;;;13.00;80.70;;;;;;6213303;23;20008;-67
2022/09/18 02:02:56;;;;;;;7.93;1.73;;;12.90;81.40;;;;;;6213363;23;20004;-66
2022/09/18 02:05:44;;;;;;;5.03;1.35;;;12.90;80.80;;;;;;6213174;23;20008;-66
2022/09/18 02:08:20;;;;;;;5.43;1.60;;;13.00;80.70;;;;;;6212988;23;20008;-66
2022/09/18 02:11:08;;;;;;;4.20;1.40;;;13.00;80.70;;;;;;6213197;23;20008;-66
2022/09/18 02:13:38;;;;;;;2.60;1.20;;;12.90;80.90;;;;;;6213237;23;20001;-67
2022/09/18 02:16:10;;;;;;;2.83;1.00;;;12.90;81.00;;;;;;6211756;23;20028;-67
2022/09/18 02:18:43;;;;;;;4.45;1.30;;;12.90;81.20;;;;;;6213185;23;20009;-67
2022/09/18 02:21:12;;;;;;;3.05;1.27;;;12.90;81.40;;;;;;6213938;23;20087;-65
2022/09/18 02:23:40;;;;;;;3.55;1.17;;;12.90;81.40;;;;;;6212657;23;20008;-65
2022/09/18 02:26:08;;;;;;;5.70;1.27;;;12.80;81.70;;;;;;6211499;23;20031;-66
2022/09/18 02:28:35;;;;;;;4.70;1.80;;;12.80;81.80;;;;;;6209976;23;20017;-64
2022/09/18 02:31:01;;;;;;;4.00;1.30;;;12.80;81.90;;;;;;6211060;23;20001;-65
2022/09/18 02:33:28;;;;;;;4.95;1.30;;;12.80;81.90;;;;;;6212267;23;20475;-64
2022/09/18 02:36:14;;;;;;;4.38;1.23;;;12.80;82.00;;;;;;6211949;23;20001;-65
2022/09/18 02:39:02;;;;;;;4.85;1.40;;;12.80;82.10;;;;;;6212743;23;20008;-64
2022/09/18 02:41:39;;;;;;;4.18;1.08;;;12.80;82.10;;;;;;6212847;23;20472;-65
2022/09/18 02:44:16;;;;;;;7.53;1.55;;;12.90;82.10;;;;;;6212836;23;20007;-67
2022/09/18 02:46:56;;;;;;;5.03;1.42;;;12.80;82.20;;;;;;6212591;23;20315;-65
2022/09/18 02:49:46;;;;;;;4.00;1.27;;;12.80;82.30;;;;;;6212937;23;20473;-67
2022/09/18 02:52:22;;;;;;;5.25;1.10;;;12.80;82.40;;;;;;6212549;23;19997;-67
2022/09/18 02:54:55;;;;;;;3.40;1.10;;;12.80;82.30;;;;;;6212769;23;20338;-67
2022/09/18 02:57:34;;;;;;;3.58;1.05;;;12.80;82.40;;;;;;6212282;23;20004;-68
2022/09/18 03:00:01;;;;;;;1.98;0.80;;;12.80;82.60;;;;;;6212567;23;20001;-68
2022/09/18 03:02:27;;;;;;;3.05;1.17;;;12.90;82.70;;;;;;6212398;23;20004;-67
2022/09/18 03:04:53;;;;;;;3.22;1.05;;;12.80;82.50;;;;;;6212193;23;20464;-68
2022/09/18 03:07:19;;;;;;;3.90;1.10;;;12.80;82.40;;;;;;6212309;23;20077;-67
2022/09/18 03:09:44;;;;;;;3.10;0.90;;;12.90;82.30;;;;;;6212458;23;20338;-66
2022/09/18 03:12:11;;;;;;;4.93;1.75;;;12.90;82.30;;;;;;6212672;23;20004;-66
2022/09/18 03:14:36;;;;;;;4.93;1.50;;;12.90;82.30;;;;;;6212467;23;20001;-66
2022/09/18 03:17:02;;;;;;;5.32;1.42;;;12.90;82.30;;;;;;6212511;23;20007;-66
2022/09/18 03:19:27;;;;;;;3.22;1.25;;;12.90;82.50;;;;;;6212363;23;20011;-67
2022/09/18 03:21:53;;;;;;;4.07;1.30;;;12.90;82.50;;;;;;6212547;23;20008;-66
2022/09/18 03:24:19;;;;;;;4.63;1.05;;;12.90;82.50;;;;;;6212330;23;20015;-66
2022/09/18 03:26:45;;;;;;;2.90;1.02;;;12.90;82.40;;;;;;6212146;23;20008;-66
2022/09/18 03:29:12;;;;;;;4.78;1.20;;;12.90;82.60;;;;;;6212408;23;20001;-66
2022/09/18 03:31:39;;;;;;;3.00;1.00;;;12.90;82.70;;;;;;6212162;23;20333;-65
2022/09/18 03:34:05;;;;;;;3.28;1.10;;;12.90;82.80;;;;;;6212461;23;20083;-65
2022/09/18 03:36:31;;;;;;;6.30;1.33;;;12.90;82.80;;;;;;6212217;23;19996;-65
2022/09/18 03:38:56;;;;;;;5.50;1.23;;;12.80;82.90;;;;;;6211863;23;20009;-65
2022/09/18 03:41:22;;;;;;;2.40;1.20;;;12.90;83.10;;;;;;6210576;23;20479;-65
2022/09/18 03:43:48;;;;;;;3.78;0.95;;;12.90;83.10;;;;;;6212354;23;20464;-66
2022/09/18 03:46:21;;;;;;;2.60;1.10;;;12.80;83.00;;;;;;6212338;23;19996;-67
2022/09/18 03:48:46;;;;;;;2.75;1.05;;;12.80;82.90;;;;;;6211728;23;20031;-66
2022/09/18 03:51:12;;;;;;;5.32;1.10;;;12.90;82.90;;;;;;6212170;23;19997;-66
2022/09/18 03:53:38;;;;;;;4.70;1.30;;;12.90;82.90;;;;;;6211947;23;20055;-66
2022/09/18 03:56:04;;;;;;;3.65;1.20;;;12.80;83.60;;;;;;6212201;23;20574;-67
2022/09/18 03:58:29;;;;;;;5.18;1.10;;;12.80;83.00;;;;;;6212071;23;20358;-66
2022/09/18 04:00:55;;;;;;;7.15;3.05;;;12.80;83.10;;;;;;6211916;23;20050;-65
2022/09/18 04:03:21;;;;;;;6.50;2.35;;;12.80;83.10;;;;;;6212002;23;20011;-66
2022/09/18 04:05:49;;;;;;;5.63;2.10;;;12.80;83.10;;;;;;6212106;23;20015;-66
2022/09/18 04:08:16;;;;;;;4.45;1.45;;;12.80;83.10;;;;;;6210066;23;20389;-66
2022/09/18 04:10:41;;;;;;;3.50;1.20;;;12.80;83.20;;;;;;6211884;23;20146;-66
2022/09/18 04:13:07;;;;;;;2.20;1.20;;;12.80;83.10;;;;;;6211866;23;20437;-68
2022/09/18 04:15:32;;;;;;;3.28;1.20;;;12.80;83.20;;;;;;6211977;23;20001;-65
2022/09/18 04:17:58;;;;;;;3.88;0.98;;;12.80;83.20;;;;;;6211751;23;20131;-66
2022/09/18 04:20:24;;;;;;;4.47;1.50;;;12.80;83.20;;;;;;6212135;23;20103;-66
2022/09/18 04:22:49;;;;;;;2.67;1.15;;;12.80;83.20;;;;;;6211783;23;20078;-66
2022/09/18 04:25:15;;;;;;;3.05;0.90;;;12.80;83.20;;;;;;6212114;23;20398;-66
2022/09/18 04:27:41;;;;;;;3.47;1.45;;;12.80;83.10;;;;;;6211597;23;20015;-66
2022/09/18 04:30:07;;;;;;;3.72;1.35;;;12.80;83.10;;;;;;6212051;23;20051;-66
2022/09/18 04:32:33;;;;;;;3.20;1.00;;;12.80;83.10;;;;;;6212087;23;20004;-67
2022/09/18 04:34:58;;;;;;;4.88;1.38;;;12.80;83.10;;;;;;6212041;23;19997;-65
2022/09/18 04:37:25;;;;;;;4.90;1.35;;;12.80;83.20;;;;;;6211866;23;20012;-65
2022/09/18 04:39:50;;;;;;;3.85;1.52;;;12.80;83.40;;;;;;6212107;23;20493;-65
2022/09/18 04:42:15;;;;;;;5.43;1.30;;;12.80;83.40;;;;;;6212167;23;20005;-66
2022/09/18 04:44:41;;;;;;;3.90;1.23;;;12.80;83.50;;;;;;6211739;23;20005;-66
2022/09/18 04:47:07;;;;;;;3.92;1.00;;;12.70;83.70;;;;;;6211957;23;20457;-67
2022/09/18 04:49:32;;;;;;;2.22;0.90;;;12.70;83.70;;;;;;6211917;23;20114;-67
2022/09/18 04:51:58;;;;;;;1.60;0.80;;;12.70;83.70;;;;;;6211681;23;20505;-65
2022/09/18 04:54:23;;;;;;;2.70;0.90;;;12.70;83.80;;;;;;6211889;23;20068;-66
2022/09/18 04:56:49;;;;;;;5.75;1.15;;;12.70;84.00;;;;;;6211439;23;20083;-66
2022/09/18 04:59:14;;;;;;;4.57;1.30;;;12.60;84.10;;;;;;6211525;23;20087;-66
2022/09/18 05:01:40;;;;;;;3.13;1.20;;;12.70;84.30;;;;;;6213184;23;20001;-66
2022/09/18 05:04:05;;;;;;;4.72;1.10;;;12.70;84.30;;;;;;6211872;23;20036;-66
2022/09/18 05:06:31;;;;;;;1.40;0.75;;;12.70;84.40;;;;;;6213314;23;20008;-66
2022/09/18 05:08:57;;;;;;;2.85;0.93;;;12.70;84.40;;;;;;6213232;23;20001;-66
2022/09/18 05:11:23;;;;;;;2.22;0.90;;;12.60;84.30;;;;;;6213380;23;20007;-66
2022/09/18 05:13:49;;;;;;;4.05;1.08;;;12.70;84.30;;;;;;6213135;23;20007;-66
2022/09/18 05:16:15;;;;;;;3.00;0.90;;;12.70;84.30;;;;;;6213747;23;19996;-66
2022/09/18 05:18:41;;;;;;;4.28;1.08;;;12.70;84.30;;;;;;6213286;23;20001;-66
2022/09/18 05:21:06;;;;;;;1.90;0.85;;;12.70;84.30;;;;;;6213162;23;20014;-66
2022/09/18 05:23:36;;;;;;;2.22;1.05;;;12.70;84.20;;;;;;6213322;23;20139;-67
2022/09/18 05:26:02;;;;;;;3.47;1.15;;;12.70;84.30;;;;;;6213667;23;20067;-67
2022/09/18 05:28:28;;;;;;;1.58;0.80;;;12.70;84.30;;;;;;6213293;23;20460;-67
2022/09/18 05:30:58;;;;;;;2.55;1.02;;;12.70;84.40;;;;;;6213344;23;20001;-67
2022/09/18 05:33:25;;;;;;;2.70;1.00;;;12.70;84.60;;;;;;6213429;23;20096;-67
2022/09/18 05:35:53;;;;;;;3.38;1.00;;;12.60;84.80;;;;;;6213646;23;20429;-67
2022/09/18 05:38:19;;;;;;;4.03;1.20;;;12.60;84.90;;;;;;6213202;23;20457;-67
2022/09/18 05:40:46;;;;;;;4.38;1.10;;;12.60;85.10;;;;;;6213283;23;20001;-67
2022/09/18 05:43:11;;;;;;;3.10;0.90;;;12.60;85.10;;;;;;6213105;23;20449;-67
2022/09/18 05:45:37;;;;;;;2.28;0.82;;;12.60;85.00;;;;;;6213615;23;20060;-67
2022/09/18 05:48:04;;;;;;;3.65;1.00;;;12.60;84.90;;;;;;6213111;23;20000;-67
2022/09/18 05:50:31;;;;;;;1.80;0.80;;;12.60;84.80;;;;;;6211748;23;20430;-67
2022/09/18 05:52:57;;;;;;;1.35;0.75;;;12.60;84.80;;;;;;6213243;23;20007;-66
2022/09/18 05:55:23;;;;;;;2.03;0.90;;;12.60;84.80;;;;;;6212986;23;20028;-65
2022/09/18 05:57:52;;;;;;;1.85;0.70;;;12.60;84.80;;;;;;6213228;23;20008;-66
2022/09/18 06:00:18;;;;;;;3.53;1.20;;;12.60;84.80;;;;;;6213207;23;20445;-65
2022/09/18 06:02:57;;;;;;;1.25;0.70;;;12.70;84.70;;;;;;6213131;23;20123;-66
2022/09/18 06:05:23;;;;;;;4.30;0.70;;;12.70;84.60;;;;;;6212812;23;20429;-66
2022/09/18 06:07:50;;;;;;;1.17;0.60;;;12.70;84.40;;;;;;6213300;23;20022;-66
2022/09/18 06:10:18;;;;;;;2.03;0.80;;;12.70;84.30;;;;;;6213069;23;20084;-67
2022/09/18 06:12:44;;;;;;;2.40;0.75;;;12.70;84.30;;;;;;6212865;23;20008;-66
2022/09/18 06:15:10;;;;;;;1.33;0.80;;;12.70;84.20;;;;;;6213276;23;20493;-66
2022/09/18 06:17:36;;;;;;;4.10;0.80;;;12.70;84.30;;;;;;6213116;23;20013;-67
2022/09/18 06:20:02;;;;;;;2.55;1.00;;;12.70;84.30;;;;;;6213327;23;20004;-66
2022/09/18 06:22:29;;;;;;;2.00;0.80;;;12.70;84.30;;;;;;6213064;23;20075;-67
2022/09/18 06:24:55;;;;;;;2.65;0.70;;;12.70;84.20;;;;;;6213244;23;20008;-66
2022/09/18 06:27:20;;;;;;;2.22;0.82;;;12.80;84.10;;;;;;6212756;23;20008;-66
2022/09/18 06:29:46;;;;;;;2.75;1.00;;;12.80;84.10;;;;;;6212877;23;20004;-67
2022/09/18 06:32:11;;;;;;;2.28;0.85;;;12.80;84.10;;;;;;6213011;23;20377;-67
2022/09/18 06:34:37;;;;;;;2.40;0.80;;;12.80;84.00;;;;;;6212437;23;20004;-67
2022/09/18 06:37:02;;;;;;;1.52;0.80;;;12.80;83.90;;;;;;6212137;23;20011;-66
2022/09/18 06:39:28;;;;;;;2.60;0.80;;;12.80;83.90;;;;;;6213073;23;20012;-65
2022/09/18 06:41:54;;;;;;;2.28;0.70;;;12.90;84.00;;;;;;6213196;23;20076;-66
2022/09/18 06:44:19;;;;;;;3.35;0.90;;;12.90;83.80;;;;;;6212786;23;20343;-65
2022/09/18 06:46:46;;;;;;;1.95;0.80;;;12.90;83.80;;;;;;6213001;23;20063;-64
2022/09/18 06:49:12;;;;;;;3.35;1.10;;;12.90;83.70;;;;;;6213391;23;20076;-66
2022/09/18 06:51:39;;;;;;;2.30;0.70;;;13.00;83.80;;;;;;6213312;23;20370;-66
2022/09/18 06:54:05;;;;;;;2.60;0.90;;;13.00;83.60;;;;;;6213086;23;20023;-66
2022/09/18 06:56:30;;;;;;;2.13;1.00;;;13.00;83.60;;;;;;6212652;23;20422;-66
2022/09/18 06:58:56;;;;;;;2.92;1.00;;;13.10;83.60;;;;;;6212728;23;20353;-65
2022/09/18 07:01:22;;;;;;;1.88;0.70;;;13.10;83.40;;;;;;6213043;23;20005;-67
2022/09/18 07:03:48;;;;;;;1.75;0.82;;;13.20;83.20;;;;;;6212851;23;20425;-66
2022/09/18 07:06:13;;;;;;;1.42;0.70;;;13.20;83.20;;;;;;6212763;23;20469;-65
2022/09/18 07:08:39;;;;;;;1.38;0.70;;;13.10;83.20;;;;;;6212485;23;20035;-67
2022/09/18 07:11:05;;;;;;;2.05;0.70;;;13.20;83.20;;;;;;6212900;23;20001;-67
2022/09/18 07:13:31;;;;;;;2.28;0.90;;;13.10;83.20;;;;;;6212708;23;19996;-66
2022/09/18 07:15:57;;;;;;;1.80;0.70;;;13.20;83.20;;;;;;6212322;23;20015;-66
2022/09/18 07:18:23;;;;;;;1.25;0.60;;;13.20;83.10;;;;;;6212528;23;20135;-66
2022/09/18 07:20:49;;;;;;;1.75;0.68;;;13.20;83.10;;;;;;6210933;23;20012;-66
2022/09/18 07:23:15;;;;;;;4.13;1.10;;;13.20;83.70;;;;;;6212398;23;20078;-64
2022/09/18 07:25:40;;;;;;;1.33;0.63;;;13.20;83.00;;;;;;6211791;23;20004;-66
2022/09/18 07:28:09;;;;;;;2.60;1.00;;;13.30;82.90;;;;;;6212522;23;20346;-67
2022/09/18 07:30:35;;;;;;;4.20;0.90;;;13.30;82.90;;;;;;6212860;23;19997;-66
2022/09/18 07:33:02;;;;;;;3.10;1.10;;;13.30;82.80;;;;;;6212854;23;20023;-67
2022/09/18 07:35:27;;;;;;;1.15;0.63;;;13.40;82.80;;;;;;6212553;23;20440;-66
2022/09/18 07:38:01;;;;;;;2.95;0.70;;;13.40;82.80;;;;;;6212142;23;20029;-66
2022/09/18 07:40:27;;;;;;;2.78;0.80;;;13.40;82.70;;;;;;6212635;23;20060;-65
2022/09/18 07:43:01;;;;;;;3.33;0.85;;;13.40;82.60;;;;;;6211975;23;20054;-65
2022/09/18 07:45:27;;;;;;;2.13;0.70;;;13.40;82.70;;;;;;6212323;23;20446;-65
2022/09/18 07:47:52;;;;;;;1.58;0.70;;;13.40;82.70;;;;;;6211848;23;20080;-65
2022/09/18 07:50:18;;;;;;;1.73;1.00;;;13.40;82.70;;;;;;6212275;23;20087;-66
2022/09/18 07:52:51;;;;;;;3.10;1.13;;;13.40;82.60;;;;;;6211631;23;20004;-66
2022/09/18 07:55:25;;;;;;;2.35;0.70;;;13.40;82.60;;;;;;5067044;28;20804;-66
2022/09/18 07:58:03;;;;;;;2.38;0.80;;;13.40;82.60;;;;;;5064835;28;20094;-67
2022/09/18 08:00:32;;;;;;;3.15;0.90;;;13.40;82.50;;;;;;5063237;28;20082;-66
2022/09/18 08:03:05;;;;;;;1.83;0.70;;;13.50;82.50;;;;;;5065393;28;20518;-67
2022/09/18 08:05:31;;;;;;;2.25;0.70;;;13.50;82.50;;;;;;5067242;28;20071;-65
2022/09/18 08:08:23;;;;;;;2.20;1.20;;;13.50;82.50;;;;;;5066750;28;20028;-65
2022/09/18 08:10:49;;;;;;;2.33;0.88;;;13.60;82.60;;;;;;5066095;28;20453;-65
2022/09/18 08:13:15;;;;;;;2.20;0.90;;;13.60;82.60;;;;;;5053179;28;20034;-66
2022/09/18 08:15:41;;;;;;;2.42;0.82;;;13.60;82.50;;;;;;5052936;28;20024;-65
2022/09/18 08:18:10;;;;;;;1.48;0.80;;;13.60;82.70;;;;;;5063709;28;20016;-65
2022/09/18 08:20:36;;;;;;;2.35;0.85;;;13.60;82.70;;;;;;5060866;28;20025;-66
2022/09/18 08:23:04;;;;;;;3.58;1.42;;;13.60;82.80;;;;;;5051015;28;20481;-66
2022/09/18 08:25:30;;;;;;;2.45;1.30;;;13.60;82.70;;;;;;5048539;28;20021;-66
2022/09/18 08:28:03;;;;;;;4.38;1.60;;;13.60;82.60;;;;;;5055919;28;20426;-67
2022/09/18 08:30:29;;;;;;;4.80;1.73;;;13.60;82.60;;;;;;5058878;28;20041;-66
2022/09/18 08:33:05;;;;;;;6.45;2.28;;;13.60;82.60;;;;;;5058575;28;20045;-65
2022/09/18 08:35:31;;;;;;;4.28;2.00;;;13.70;82.60;;;;;;5055459;28;20021;-69
2022/09/18 08:37:57;;;;;;;4.78;1.88;;;13.70;82.40;;;;;;5065082;28;20082;-66
2022/09/18 08:40:44;;;;;;;3.50;1.30;;;13.80;82.30;;;;;;5069286;28;20027;-66
2022/09/18 08:43:50;;;;;;;3.97;1.20;;;13.80;82.30;;;;;;5060982;28;20055;-64
2022/09/18 08:46:30;;;;;;;2.42;0.88;;;13.90;82.20;;;;;;5066436;28;20016;-66
2022/09/18 08:49:26;;;;;;;1.73;0.90;;;13.90;82.10;;;;;;5065275;28;20024;-65
2022/09/18 08:52:08;;;;;;;2.65;1.00;;;14.00;82.10;;;;;;5064889;28;20020;-65
2022/09/18 08:54:50;;;;;;;2.72;0.80;;;14.00;82.10;;;;;;5060767;28;20383;-65
2022/09/18 08:57:24;;;;;;;1.65;0.80;;;14.00;82.10;;;;;;5058768;28;20032;-65
2022/09/18 08:59:57;;;;;;;1.30;0.68;;;14.00;82.10;;;;;;5049313;28;20018;-66
2022/09/18 09:02:37;;;;;;;1.83;0.63;;;14.00;82.20;;;;;;5060259;28;20017;-65
2022/09/18 09:05:07;;;;;;;1.55;0.60;;;14.00;82.30;;;;;;5059904;28;20025;-64
2022/09/18 09:08:02;;;;;;;2.60;0.80;;;14.00;82.20;;;;;;5041275;28;20051;-65
2022/09/18 09:10:54;;;;;;;2.30;0.80;;;14.00;82.20;;;;;;5035056;28;20029;-65
2022/09/18 09:14:03;;;;;;;2.20;0.80;;;13.90;82.30;;;;;;5056383;28;20070;-65
2022/09/18 09:16:49;;;;;;;2.42;0.80;;;13.90;82.40;;;;;;5050252;28;20025;-66
2022/09/18 09:19:27;;;;;;;0.88;0.57;;;13.90;82.30;;;;;;5052092;28;20029;-66
2022/09/18 09:22:03;;;;;;;2.33;0.90;;;13.90;82.30;;;;;;5052403;28;20029;-65
2022/09/18 09:24:47;;;;;;;1.60;0.55;;;13.90;82.40;;;;;;5033116;28;20033;-66
2022/09/18 09:27:31;;;;;;;1.40;0.70;;;14.00;82.40;;;;;;5032991;28;20498;-65
2022/09/18 09:30:05;;;;;;;1.55;0.70;;;14.10;82.40;;;;;;5044279;28;20025;-65
2022/09/18 09:32:41;;;;;;;2.58;0.80;;;14.10;82.30;;;;;;5049977;28;20036;-65
2022/09/18 09:35:29;;;;;;;1.92;0.70;;;14.20;82.30;;;;;;5052335;28;20045;-65
2022/09/18 09:37:58;;;;;;;1.67;0.60;;;14.30;82.20;;;;;;5049914;28;20032;-66
2022/09/18 09:40:43;;;;;;;2.42;0.80;;;14.40;82.20;;;;;;5049852;28;20017;-66
2022/09/18 09:43:23;;;;;;;11.60;6.53;;;14.30;82.20;;;;;;5041343;28;20079;-66
2022/09/18 09:45:58;;;;;;;8.82;5.57;;;14.40;82.30;;;;;;5044102;28;20053;-66
2022/09/18 09:48:36;;;;;;;4.93;2.97;;;14.40;82.30;;;;;;5047692;28;20646;-66
2022/09/18 09:51:06;;;;;;;3.97;1.70;;;14.40;82.20;;;;;;5048880;28;20029;-66
2022/09/18 09:53:32;;;;;;;3.40;1.10;;;14.50;82.20;;;;;;5046594;28;20029;-66
2022/09/18 09:56:21;;;;;;;2.85;1.00;;;14.50;82.20;;;;;;5049632;28;20048;-66
2022/09/18 09:58:56;;;;;;;1.95;1.02;;;14.60;82.30;;;;;;5045161;28;20446;-66
2022/09/18 10:01:28;;;;;;;1.23;0.80;;;14.60;82.30;;;;;;5067289;28;20017;-66
2022/09/18 10:04:26;;;;;;;1.40;0.80;;;14.60;82.10;;;;;;5035303;28;20028;-65
2022/09/18 10:07:10;;;;;;;3.10;1.10;;;14.70;82.20;;;;;;5033614;28;21307;-65
2022/09/18 10:09:45;;;;;;;1.38;0.93;;;14.70;82.30;;;;;;5044932;28;20055;-65
2022/09/18 10:12:31;;;;;;;2.38;1.17;;;14.80;82.20;;;;;;5047197;28;20510;-66
2022/09/18 10:15:21;;;;;;;2.45;1.10;;;14.80;82.30;;;;;;5052677;28;20108;-65
2022/09/18 10:17:49;;;;;;;2.60;1.00;;;14.80;82.20;;;;;;5043052;28;20025;-66
2022/09/18 10:20:25;;;;;;;2.55;0.82;;;14.80;82.00;;;;;;5055655;28;20455;-65
2022/09/18 10:22:51;;;;;;;3.08;0.88;;;14.80;81.90;;;;;;5042431;28;20024;-66
2022/09/18 10:25:32;;;;;;;3.13;0.90;;;14.90;81.80;;;;;;5061234;28;20032;-66
2022/09/18 10:27:57;;;;;;;1.97;0.80;;;14.90;81.70;;;;;;5044358;28;20391;-66
2022/09/18 10:30:23;;;;;;;2.47;0.80;;;15.00;81.50;;;;;;5047894;28;20028;-65
2022/09/18 10:32:49;;;;;;;2.90;1.05;;;14.90;81.50;;;;;;5051890;28;20032;-66
2022/09/18 10:35:18;;;;;;;2.38;1.10;;;14.90;81.50;;;;;;5050350;28;20108;-67
2022/09/18 10:37:43;;;;;;;3.17;1.10;;;14.90;81.50;;;;;;5038031;28;20025;-64
2022/09/18 10:40:28;;;;;;;1.50;0.90;;;14.90;81.60;;;;;;5041566;28;20024;-65
2022/09/18 10:42:55;;;;;;;2.05;0.90;;;14.90;81.60;;;;;;5033085;28;20033;-65
2022/09/18 10:45:29;;;;;;;1.67;0.85;;;14.90;81.50;;;;;;5041327;28;20428;-65
2022/09/18 10:48:20;;;;;;;2.88;1.10;;;15.00;81.70;;;;;;5043441;28;20059;-65
2022/09/18 10:50:58;;;;;;;2.93;1.00;;;15.00;81.60;;;;;;5048557;28;20043;-65
2022/09/18 10:53:29;;;;;;;2.00;0.70;;;15.10;81.50;;;;;;5036543;28;20407;-65
2022/09/18 10:56:03;;;;;;;2.00;0.90;;;15.10;81.50;;;;;;5039079;28;20020;-65
2022/09/18 10:58:31;;;;;;;4.82;1.38;;;15.10;81.60;;;;;;5037706;28;20021;-65
2022/09/18 11:01:07;;;;;;;2.35;1.00;;;15.10;81.60;;;;;;5053725;28;20033;-65
2022/09/18 11:03:39;;;;;;;3.55;0.88;;;15.10;81.60;;;;;;5033871;28;20519;-65
2022/09/18 11:06:15;;;;;;;3.25;0.90;;;15.10;81.60;;;;;;5038184;28;20043;-65
2022/09/18 11:08:45;;;;;;;3.08;1.00;;;15.10;81.50;;;;;;5039725;28;20110;-66
2022/09/18 11:11:29;;;;;;;2.08;0.90;;;15.10;81.30;;;;;;5044318;28;20774;-66
2022/09/18 11:14:07;;;;;;;3.25;1.30;;;15.10;81.20;;;;;;5032897;28;20037;-66
2022/09/18 11:16:45;;;;;;;4.30;1.40;;;15.00;81.10;;;;;;5052972;28;20479;-66
2022/09/18 11:19:11;;;;;;;3.05;1.60;;;15.00;81.20;;;;;;5047232;28;20043;-65
2022/09/18 11:21:49;;;;;;;2.00;1.45;;;15.00;81.40;;;;;;5050471;28;20099;-66
2022/09/18 11:24:30;;;;;;;2.25;1.10;;;15.00;81.60;;;;;;5035702;28;20487;-65
2022/09/18 11:26:58;;;;;;;2.15;0.80;;;15.00;81.60;;;;;;5048774;28;20025;-66
2022/09/18 11:29:30;;;;;;;2.15;0.93;;;15.00;81.50;;;;;;5038245;28;20026;-65
2022/09/18 11:32:01;;;;;;;2.42;1.13;;;15.10;81.50;;;;;;5046029;28;20021;-65
2022/09/18 11:34:29;;;;;;;2.05;1.02;;;15.00;81.30;;;;;;5048724;28;20033;-66
2022/09/18 11:37:03;;;;;;;2.95;0.70;;;15.00;81.30;;;;;;5041010;28;20524;-65
2022/09/18 11:39:39;;;;;;;2.42;0.90;;;15.00;81.30;;;;;;5033148;28;20040;-66
2022/09/18 11:42:16;;;;;;;2.78;0.90;;;15.00;81.30;;;;;;5039379;28;20037;-66
2022/09/18 11:44:42;;;;;;;2.42;1.02;;;14.90;81.30;;;;;;5045490;28;20029;-65
2022/09/18 11:47:22;;;;;;;1.48;0.90;;;14.90;81.40;;;;;;5048689;28;20063;-65
2022/09/18 11:49:50;;;;;;;2.00;0.73;;;14.90;81.40;;;;;;5039235;28;20495;-65
2022/09/18 11:53:08;;;;;;;2.45;0.90;;;14.80;81.40;;;;;;5033856;28;20817;-65
2022/09/18 11:55:43;;;;;;;3.88;1.30;;;14.70;81.30;;;;;;5011734;28;20555;-65
2022/09/18 11:58:27;;;;;;;2.70;1.13;;;14.70;81.60;;;;;;5023130;28;20034;-65
2022/09/18 12:01:15;;;;;;;1.75;0.75;;;14.60;81.70;;;;;;5032795;28;20439;-64
2022/09/18 12:03:48;;;;;;;2.05;0.80;;;14.60;81.70;;;;;;5035375;28;20122;-67
2022/09/18 12:06:27;;;;;;;2.88;0.90;;;14.70;81.70;;;;;;5037900;28;20029;-66
2022/09/18 12:08:59;;;;;;;3.05;0.88;;;14.70;81.60;;;;;;5040746;28;20376;-66
2022/09/18 12:11:43;;;;;;;2.72;1.20;;;14.80;81.60;;;;;;5039357;28;20033;-64
2022/09/18 12:14:24;;;;;;;2.00;0.90;;;14.70;81.50;;;;;;5037131;28;20381;-65
2022/09/18 12:16:56;;;;;;;2.13;0.80;;;14.70;81.50;;;;;;5041715;28;20037;-66
2022/09/18 12:19:39;;;;;;;3.25;0.93;;;14.70;81.50;;;;;;5043252;28;20104;-65
2022/09/18 12:22:13;;;;;;;2.85;0.85;;;14.60;81.60;;;;;;5041263;28;20610;-65
2022/09/18 12:24:38;;;;;;;2.10;0.75;;;14.60;81.70;;;;;;5039141;28;20021;-65
2022/09/18 12:27:25;;;;;;;2.85;0.93;;;14.70;81.80;;;;;;5040436;28;20041;-65
2022/09/18 12:30:00;;;;;;;2.42;0.90;;;14.70;81.70;;;;;;5037360;28;20021;-65
2022/09/18 12:32:58;;;;;;;1.40;0.73;;;14.70;81.80;;;;;;5040493;28;20048;-66
2022/09/18 12:35:47;;;;;;;1.50;0.80;;;14.70;81.80;;;;;;5036403;28;20045;-66
2022/09/18 12:38:35;;;;;;;1.42;0.77;;;14.70;81.80;;;;;;5028542;28;20049;-66
2022/09/18 12:41:52;;;;;;;1.63;0.70;;;14.70;81.70;;;;;;5031992;28;20022;-66
2022/09/18 12:44:18;;;;;;;2.30;0.80;;;14.70;81.60;;;;;;5011315;28;20113;-66
2022/09/18 12:47:12;;;;;;;2.90;0.80;;;14.80;81.50;;;;;;5042222;28;20495;-64
2022/09/18 12:50:19;;;;;;;2.10;0.70;;;14.80;81.40;;;;;;5035901;28;20487;-64
2022/09/18 12:53:03;;;;;;;2.47;0.80;;;14.80;81.30;;;;;;5037355;28;20507;-65
2022/09/18 12:55:49;;;;;;;2.47;0.80;;;14.80;81.90;;;;;;5046597;28;20025;-65
2022/09/18 12:58:33;;;;;;;2.03;0.82;;;14.80;81.20;;;;;;5044599;28;20044;-65
2022/09/18 13:01:02;;;;;;;1.38;0.85;;;14.90;81.20;;;;;;5044626;28;20151;-65
2022/09/18 13:03:37;;;;;;;1.40;1.00;;;14.90;81.20;;;;;;5048005;28;20025;-65
2022/09/18 13:06:11;;;;;;;4.43;2.97;;;14.90;81.30;;;;;;5048287;28;20515;-66
2022/09/18 13:08:45;;;;;;;2.15;1.50;;;14.90;81.50;;;;;;5047167;28;20036;-65
2022/09/18 13:11:27;;;;;;;3.40;1.20;;;14.90;81.50;;;;;;5049718;28;20087;-66
2022/09/18 13:13:58;;;;;;;2.22;0.88;;;14.90;81.50;;;;;;5048471;28;20033;-66
2022/09/18 13:16:37;;;;;;;3.40;1.52;;;14.90;81.60;;;;;;5050122;28;20036;-66